Time;durP1;ratioP1;P1;durP2;ratioP2;P2;SDS_P1;SDS_P2;PMS_P1;PMS_P2;Temp;Humidity;BMP_temperature;BMP_pressure;BME280_temperature;BME280_humidity;BME280_pressure;Samples;Min_cycle;Max_cycle;Signal;HPM_P1;HPM_P2
2021/01/17 00:00:44;;;;;;;7.70;3.00;;;-1.60;99.90;;;;;;5093360;28;20424;-60
2021/01/17 00:03:11;;;;;;;5.63;1.90;;;-1.50;99.90;;;;;;5093648;28;20421;-60
2021/01/17 00:05:38;;;;;;;7.20;2.30;;;-1.50;99.90;;;;;;5092990;28;20429;-60
2021/01/17 00:08:08;;;;;;;6.40;2.40;;;-1.50;99.90;;;;;;5091950;28;20434;-60
2021/01/17 00:10:35;;;;;;;8.02;2.47;;;-1.50;99.90;;;;;;5089742;28;20413;-60
2021/01/17 00:13:03;;;;;;;5.93;2.50;;;-1.60;99.90;;;;;;5092236;28;20418;-60
2021/01/17 00:15:29;;;;;;;7.55;2.47;;;-1.50;99.90;;;;;;5092024;28;20436;-60
2021/01/17 00:17:56;;;;;;;5.85;2.10;;;-1.50;99.90;;;;;;5092289;28;20414;-60
2021/01/17 00:20:24;;;;;;;5.18;2.10;;;-1.40;99.90;;;;;;5092116;28;20451;-60
2021/01/17 00:22:53;;;;;;;6.20;2.20;;;-1.40;99.90;;;;;;5092238;28;20421;-60
2021/01/17 00:25:21;;;;;;;5.10;1.83;;;-1.40;99.90;;;;;;5092759;28;20864;-59
2021/01/17 00:27:50;;;;;;;5.10;1.95;;;-1.30;99.90;;;;;;5092353;28;20853;-59
2021/01/17 00:30:19;;;;;;;5.50;2.30;;;-1.40;99.90;;;;;;5091982;28;20444;-60
2021/01/17 00:32:48;;;;;;;6.60;2.53;;;-1.40;99.90;;;;;;5093436;28;20422;-60
2021/01/17 00:35:15;;;;;;;7.50;2.20;;;-1.50;99.90;;;;;;5093068;28;20421;-59
2021/01/17 00:37:42;;;;;;;6.57;2.33;;;-1.50;99.90;;;;;;5094388;28;20958;-60
2021/01/17 00:40:10;;;;;;;7.07;2.30;;;-1.40;99.90;;;;;;5093592;28;20433;-59
2021/01/17 00:42:43;;;;;;;6.93;1.83;;;-1.20;99.90;;;;;;5093688;28;20504;-59
2021/01/17 00:45:11;;;;;;;6.90;2.50;;;-1.10;99.90;;;;;;5093733;28;20516;-60
2021/01/17 00:47:37;;;;;;;5.30;1.92;;;-1.00;99.90;;;;;;5094366;28;20434;-59
2021/01/17 00:50:05;;;;;;;6.00;2.13;;;-1.00;99.90;;;;;;5092660;28;20432;-59
2021/01/17 00:52:32;;;;;;;4.25;2.00;;;-1.10;99.90;;;;;;5092847;28;20504;-59
2021/01/17 00:55:00;;;;;;;6.80;2.10;;;-1.20;99.90;;;;;;5093302;28;20432;-59
2021/01/17 00:57:27;;;;;;;6.25;2.55;;;-1.20;99.90;;;;;;5093137;28;20422;-59
2021/01/17 00:59:54;;;;;;;5.85;1.80;;;-1.30;99.90;;;;;;5091611;28;20490;-59
2021/01/17 01:02:20;;;;;;;5.82;2.22;;;-1.30;99.90;;;;;;5090528;28;20520;-59
2021/01/17 01:04:46;;;;;;;5.10;2.00;;;-1.30;99.90;;;;;;5090667;28;21360;-59
2021/01/17 01:07:12;;;;;;;4.63;2.00;;;-1.20;99.90;;;;;;5090391;28;20437;-59
2021/01/17 01:09:39;;;;;;;4.88;1.60;;;-1.20;99.90;;;;;;5089253;28;20837;-59
2021/01/17 01:12:07;;;;;;;5.35;2.10;;;-1.20;99.90;;;;;;5090446;28;20724;-59
2021/01/17 01:14:33;;;;;;;6.28;2.50;;;-1.30;99.90;;;;;;5089782;28;20409;-59
2021/01/17 01:16:59;;;;;;;6.05;2.95;;;-1.20;99.90;;;;;;5091496;28;20422;-59
2021/01/17 01:19:25;;;;;;;5.22;2.72;;;-1.00;99.90;;;;;;5089688;28;20417;-59
2021/01/17 01:21:52;;;;;;;5.82;1.80;;;-0.70;99.90;;;;;;5087517;28;20848;-59
2021/01/17 01:24:18;;;;;;;7.38;2.53;;;-0.60;99.90;;;;;;5088553;28;20429;-59
2021/01/17 01:26:46;;;;;;;4.25;1.80;;;-0.60;99.90;;;;;;5085976;28;20422;-59
2021/01/17 01:29:14;;;;;;;7.53;2.13;;;-0.70;99.90;;;;;;5086145;28;20410;-59
2021/01/17 01:31:42;;;;;;;5.25;2.50;;;-0.80;99.90;;;;;;5085536;28;20421;-59
2021/01/17 01:34:09;;;;;;;6.05;2.75;;;-1.00;99.90;;;;;;5086281;28;20432;-59
2021/01/17 01:36:37;;;;;;;7.95;2.95;;;-1.20;99.90;;;;;;5087936;28;20437;-58
2021/01/17 01:39:04;;;;;;;5.40;2.40;;;-1.30;99.90;;;;;;5089134;28;20475;-58
2021/01/17 01:41:33;;;;;;;7.20;2.80;;;-1.30;99.90;;;;;;5089761;28;20430;-59
2021/01/17 01:43:59;;;;;;;6.72;3.00;;;-1.40;99.90;;;;;;5093178;28;20889;-57
2021/01/17 01:46:28;;;;;;;8.50;3.38;;;-1.40;99.90;;;;;;5093105;28;20425;-59
2021/01/17 01:48:55;;;;;;;6.43;2.80;;;-1.40;99.90;;;;;;5097355;28;20569;-58
2021/01/17 01:51:24;;;;;;;6.65;3.20;;;-1.50;99.90;;;;;;5096437;28;20426;-55
2021/01/17 01:53:52;;;;;;;5.95;2.90;;;-1.40;99.90;;;;;;5097281;28;20445;-57
2021/01/17 01:56:19;;;;;;;9.00;3.88;;;-1.40;99.90;;;;;;5095903;28;20537;-58
2021/01/17 01:58:46;;;;;;;8.15;2.67;;;-1.50;99.90;;;;;;5096241;28;20405;-58
2021/01/17 02:01:15;;;;;;;7.47;3.20;;;-1.50;99.90;;;;;;5095035;28;20432;-57
2021/01/17 02:03:47;;;;;;;8.60;3.40;;;-1.50;99.90;;;;;;5095279;28;20826;-64
2021/01/17 02:06:18;;;;;;;8.23;3.10;;;-1.40;99.90;;;;;;5094347;28;20715;-58
2021/01/17 02:09:03;;;;;;;7.03;3.00;;;-1.40;99.90;;;;;;5095280;28;20430;-57
2021/01/17 02:11:40;;;;;;;6.70;2.70;;;-1.50;99.90;;;;;;5091350;28;20486;-57
2021/01/17 02:14:16;;;;;;;8.05;3.08;;;-1.60;99.90;;;;;;5093522;28;20686;-57
2021/01/17 02:16:46;;;;;;;7.60;2.95;;;-1.50;99.90;;;;;;5092472;28;20525;-55
2021/01/17 02:19:15;;;;;;;9.10;4.03;;;-1.50;99.90;;;;;;5092466;28;20589;-58
2021/01/17 02:21:50;;;;;;;8.35;3.10;;;-1.60;99.90;;;;;;5093161;28;20425;-57
2021/01/17 02:24:18;;;;;;;8.82;3.92;;;-1.50;99.90;;;;;;5094608;28;20822;-57
2021/01/17 02:26:46;;;;;;;8.27;3.78;;;-1.50;99.90;;;;;;5093923;28;20768;-57
2021/01/17 02:29:13;;;;;;;9.10;3.90;;;-1.50;99.90;;;;;;5093342;28;20973;-58
2021/01/17 02:31:42;;;;;;;8.27;4.07;;;-1.60;99.90;;;;;;5093401;28;20724;-57
2021/01/17 02:34:10;;;;;;;6.53;3.40;;;-1.60;99.90;;;;;;5093817;28;20422;-56
2021/01/17 02:36:51;;;;;;;9.77;3.70;;;-1.50;99.90;;;;;;5094498;28;20425;-56
2021/01/17 02:39:22;;;;;;;7.68;3.88;;;-1.50;99.90;;;;;;5093276;28;20721;-55
2021/01/17 02:41:57;;;;;;;7.55;3.80;;;-1.60;99.90;;;;;;5094112;28;20425;-56
2021/01/17 02:44:26;;;;;;;7.65;3.22;;;-1.60;99.90;;;;;;5094792;28;20833;-58
2021/01/17 02:46:52;;;;;;;8.13;3.00;;;-1.60;99.90;;;;;;5094449;28;20425;-56
2021/01/17 02:49:18;;;;;;;9.50;3.97;;;-1.50;99.90;;;;;;5094170;28;20418;-57
2021/01/17 02:51:46;;;;;;;6.85;3.55;;;-1.60;99.90;;;;;;5095543;28;20856;-57
2021/01/17 02:54:20;;;;;;;7.57;3.50;;;-1.60;99.90;;;;;;5094445;28;20424;-57
2021/01/17 02:56:54;;;;;;;8.95;4.10;;;-1.60;99.90;;;;;;5094835;28;20457;-57
2021/01/17 02:59:25;;;;;;;8.40;3.40;;;-1.60;99.90;;;;;;5094292;28;20837;-57
2021/01/17 03:01:55;;;;;;;7.18;3.80;;;-1.60;99.90;;;;;;5095359;28;20871;-57
2021/01/17 03:04:32;;;;;;;8.10;3.85;;;-1.60;99.90;;;;;;5095325;28;20418;-57
2021/01/17 03:07:01;;;;;;;7.22;2.97;;;-1.50;99.90;;;;;;5094565;28;20414;-56
2021/01/17 03:09:29;;;;;;;7.40;3.33;;;-1.50;99.90;;;;;;5094981;28;20653;-56
2021/01/17 03:12:02;;;;;;;8.07;3.72;;;-1.50;99.90;;;;;;5094602;28;20452;-57
2021/01/17 03:14:30;;;;;;;9.95;4.13;;;-1.50;99.90;;;;;;5094072;28;20433;-57
2021/01/17 03:16:56;;;;;;;10.75;4.40;;;-1.50;99.90;;;;;;5094348;28;20468;-58
2021/01/17 03:19:22;;;;;;;8.88;3.53;;;-1.50;99.90;;;;;;5092354;28;20426;-57
2021/01/17 03:21:49;;;;;;;8.50;3.42;;;-1.60;99.90;;;;;;5092043;28;20414;-57
2021/01/17 03:24:15;;;;;;;9.82;3.97;;;-1.60;99.90;;;;;;5073268;28;20431;-57
2021/01/17 03:26:41;;;;;;;9.70;4.50;;;-1.60;99.90;;;;;;5094010;28;20422;-56
2021/01/17 03:29:08;;;;;;;11.73;3.92;;;-1.70;99.90;;;;;;5093987;28;20691;-58
2021/01/17 03:31:35;;;;;;;8.07;3.08;;;-1.70;99.90;;;;;;5093948;28;20734;-57
2021/01/17 03:34:01;;;;;;;6.73;3.57;;;-1.60;99.90;;;;;;5092762;28;20429;-56
2021/01/17 03:36:27;;;;;;;8.15;3.97;;;-1.50;99.90;;;;;;5094480;28;20417;-55
2021/01/17 03:38:54;;;;;;;8.63;3.47;;;-1.50;99.90;;;;;;5094796;28;20833;-57
2021/01/17 03:41:20;;;;;;;11.05;4.35;;;-1.60;99.90;;;;;;5094851;28;20424;-57
2021/01/17 03:43:46;;;;;;;9.60;3.77;;;-1.60;99.90;;;;;;5094217;28;20457;-58
2021/01/17 03:46:13;;;;;;;8.52;4.05;;;-1.70;99.90;;;;;;5094689;28;20421;-57
2021/01/17 03:48:40;;;;;;;9.27;3.92;;;-1.60;99.90;;;;;;5094113;28;20434;-58
2021/01/17 03:51:06;;;;;;;9.52;3.60;;;-1.60;99.90;;;;;;5094797;28;20428;-57
2021/01/17 03:53:32;;;;;;;8.10;3.72;;;-1.50;99.90;;;;;;5093925;28;20426;-55
2021/01/17 03:55:59;;;;;;;7.05;3.72;;;-1.40;99.90;;;;;;5095345;28;20429;-57
2021/01/17 03:58:25;;;;;;;7.25;2.85;;;-1.20;99.90;;;;;;5094413;28;20486;-58
2021/01/17 04:00:51;;;;;;;6.88;3.67;;;-1.10;99.90;;;;;;5094940;28;20432;-58
2021/01/17 04:03:19;;;;;;;8.90;4.10;;;-1.10;99.90;;;;;;5093612;28;20421;-58
2021/01/17 04:05:45;;;;;;;8.85;3.92;;;-1.00;99.90;;;;;;5094719;28;20524;-58
2021/01/17 04:08:12;;;;;;;8.00;3.45;;;-1.10;99.90;;;;;;5093583;28;20783;-58
2021/01/17 04:10:38;;;;;;;9.13;4.28;;;-1.10;99.90;;;;;;5094028;28;20860;-57
2021/01/17 04:13:04;;;;;;;7.47;3.58;;;-1.20;99.90;;;;;;5095403;28;20508;-55
2021/01/17 04:15:31;;;;;;;8.05;3.25;;;-1.30;99.90;;;;;;5094881;28;20426;-58
2021/01/17 04:17:57;;;;;;;8.63;2.85;;;-1.30;99.90;;;;;;5095331;28;20422;-57
2021/01/17 04:20:25;;;;;;;7.70;4.22;;;-1.30;99.90;;;;;;5094738;28;20430;-57
2021/01/17 04:22:51;;;;;;;9.15;3.97;;;-1.30;99.90;;;;;;5094314;28;20433;-58
2021/01/17 04:25:17;;;;;;;9.48;3.90;;;-1.40;99.90;;;;;;5093496;28;20429;-56
2021/01/17 04:27:44;;;;;;;8.15;3.35;;;-1.40;99.90;;;;;;5094401;28;20430;-57
2021/01/17 04:30:11;;;;;;;6.20;3.10;;;-1.30;99.90;;;;;;5093664;28;20422;-57
2021/01/17 04:32:39;;;;;;;10.02;3.03;;;-1.30;99.90;;;;;;5094854;28;20428;-56
2021/01/17 04:35:06;;;;;;;7.22;3.60;;;-1.30;99.90;;;;;;5094797;28;20555;-57
2021/01/17 04:37:33;;;;;;;7.65;4.45;;;-1.40;99.90;;;;;;5094786;28;20868;-58
2021/01/17 04:40:00;;;;;;;9.95;4.68;;;-1.40;99.90;;;;;;5094118;28;20426;-57
2021/01/17 04:42:33;;;;;;;10.50;4.37;;;-1.50;99.90;;;;;;5093193;28;20840;-57
2021/01/17 04:45:08;;;;;;;8.80;4.50;;;-1.50;99.90;;;;;;5091827;28;20840;-58
2021/01/17 04:47:36;;;;;;;6.90;3.60;;;-1.50;99.90;;;;;;5092626;28;20445;-62
2021/01/17 04:50:05;;;;;;;9.40;3.28;;;-1.40;99.90;;;;;;5091806;28;20426;-58
2021/01/17 04:52:41;;;;;;;10.40;5.15;;;-1.40;99.90;;;;;;5092236;28;20513;-59
2021/01/17 04:55:10;;;;;;;9.68;4.35;;;-1.50;99.90;;;;;;5092260;28;20845;-58
2021/01/17 04:57:44;;;;;;;13.82;5.50;;;-1.40;99.90;;;;;;5092641;28;20414;-58
2021/01/17 05:00:11;;;;;;;11.13;3.43;;;-1.50;99.90;;;;;;5090919;28;20606;-58
2021/01/17 05:02:44;;;;;;;9.50;4.15;;;-1.40;99.90;;;;;;5092784;28;20428;-58
2021/01/17 05:05:14;;;;;;;9.57;3.30;;;-1.30;99.90;;;;;;5092922;28;20733;-57
2021/01/17 05:07:49;;;;;;;10.60;4.63;;;-1.30;99.90;;;;;;5093458;28;20437;-57
2021/01/17 05:10:34;;;;;;;8.20;3.70;;;-1.30;99.90;;;;;;5093266;28;20914;-58
2021/01/17 05:13:08;;;;;;;8.73;3.80;;;-1.30;99.90;;;;;;5093534;28;20424;-57
2021/01/17 05:15:38;;;;;;;8.77;4.60;;;-1.30;99.90;;;;;;5092116;28;20451;-57
2021/01/17 05:18:05;;;;;;;9.38;4.05;;;-1.30;99.90;;;;;;5092293;28;20733;-57
2021/01/17 05:20:32;;;;;;;10.05;4.07;;;-1.30;99.90;;;;;;5092490;28;20795;-58
2021/01/17 05:22:59;;;;;;;10.50;3.90;;;-1.30;99.90;;;;;;5094951;28;20446;-58
2021/01/17 05:25:27;;;;;;;10.80;4.60;;;-1.40;99.90;;;;;;5096765;28;20425;-57
2021/01/17 05:27:58;;;;;;;12.15;5.55;;;-1.30;99.90;;;;;;5096275;28;20433;-56
2021/01/17 05:30:24;;;;;;;10.05;4.97;;;-1.40;99.90;;;;;;5096810;28;20433;-55
2021/01/17 05:32:52;;;;;;;12.65;5.47;;;-1.40;99.90;;;;;;5096593;28;20428;-57
2021/01/17 05:35:19;;;;;;;11.93;4.40;;;-1.30;99.90;;;;;;5096400;28;20473;-57
2021/01/17 05:37:50;;;;;;;8.60;3.67;;;-1.30;99.90;;;;;;5097340;28;20720;-57
2021/01/17 05:40:18;;;;;;;10.45;4.68;;;-1.40;99.90;;;;;;5096181;28;20425;-58
2021/01/17 05:42:46;;;;;;;12.30;5.30;;;-1.20;99.90;;;;;;5095924;28;20421;-58
2021/01/17 05:45:15;;;;;;;9.02;4.50;;;-1.10;99.90;;;;;;5095686;28;20432;-58
2021/01/17 05:47:51;;;;;;;10.32;3.55;;;-1.10;99.90;;;;;;5096616;28;20777;-58
2021/01/17 05:50:18;;;;;;;8.18;3.42;;;-0.90;99.90;;;;;;5096479;28;20740;-58
2021/01/17 05:52:44;;;;;;;8.88;3.35;;;-1.00;99.90;;;;;;5096658;28;20421;-59
2021/01/17 05:55:17;;;;;;;10.30;4.18;;;-1.00;99.90;;;;;;5094506;28;20433;-58
2021/01/17 05:57:43;;;;;;;8.53;4.53;;;-1.00;99.90;;;;;;5095904;28;20437;-58
2021/01/17 06:00:11;;;;;;;9.52;4.32;;;-1.00;99.90;;;;;;5095265;28;20433;-57
2021/01/17 06:02:40;;;;;;;11.10;4.75;;;-1.00;99.90;;;;;;5096335;28;20442;-58
2021/01/17 06:05:11;;;;;;;13.73;5.20;;;-1.00;99.90;;;;;;5096321;28;20429;-58
2021/01/17 06:07:48;;;;;;;10.02;4.20;;;-0.90;99.90;;;;;;5096790;28;20429;-58
2021/01/17 06:10:23;;;;;;;10.63;4.53;;;-1.00;99.90;;;;;;5096020;28;20429;-58
2021/01/17 06:12:51;;;;;;;10.55;4.40;;;-1.00;99.90;;;;;;5096727;28;20767;-58
2021/01/17 06:15:18;;;;;;;11.40;5.90;;;-1.00;99.90;;;;;;5096911;28;20430;-56
2021/01/17 06:17:46;;;;;;;11.02;4.68;;;-1.00;99.90;;;;;;5097147;28;20414;-57
2021/01/17 06:20:20;;;;;;;11.40;5.25;;;-0.90;99.90;;;;;;5095768;28;20564;-58
2021/01/17 06:22:47;;;;;;;11.45;5.70;;;-0.90;99.90;;;;;;5095946;28;20437;-58
2021/01/17 06:25:14;;;;;;;10.70;4.65;;;-0.90;99.90;;;;;;5095561;28;20736;-58
2021/01/17 06:27:41;;;;;;;10.80;5.28;;;-0.90;99.90;;;;;;5096264;28;20426;-58
2021/01/17 06:30:18;;;;;;;11.48;5.60;;;-1.00;99.90;;;;;;5094214;28;20728;-56
2021/01/17 06:32:47;;;;;;;10.48;5.90;;;-1.10;99.90;;;;;;5082052;28;20422;-57
2021/01/17 06:35:13;;;;;;;11.40;4.88;;;-1.10;99.90;;;;;;5094433;28;20433;-57
2021/01/17 06:37:40;;;;;;;10.13;5.03;;;-1.10;99.90;;;;;;5094746;28;20421;-57
2021/01/17 06:40:08;;;;;;;9.70;4.47;;;-1.00;99.90;;;;;;5094707;28;20448;-57
2021/01/17 06:42:34;;;;;;;11.15;5.03;;;-1.00;99.90;;;;;;5095106;28;20422;-57
2021/01/17 06:45:15;;;;;;;12.10;4.97;;;-1.00;99.90;;;;;;5095037;28;20839;-57
2021/01/17 06:47:53;;;;;;;10.02;4.97;;;-1.00;99.90;;;;;;5095336;28;20899;-57
2021/01/17 06:50:23;;;;;;;9.95;5.60;;;-1.00;99.90;;;;;;5095051;28;20426;-58
2021/01/17 06:52:54;;;;;;;12.23;5.15;;;-1.00;99.90;;;;;;5095413;28;20459;-58
2021/01/17 06:55:21;;;;;;;9.15;3.78;;;-1.00;99.90;;;;;;5094654;28;20429;-58
2021/01/17 06:57:48;;;;;;;11.75;4.43;;;-1.00;99.90;;;;;;5094378;28;20428;-58
2021/01/17 07:00:17;;;;;;;11.17;5.00;;;-1.00;99.90;;;;;;5094015;28;20436;-57
2021/01/17 07:02:51;;;;;;;12.70;5.43;;;-1.00;99.90;;;;;;5094108;28;20425;-58
2021/01/17 07:05:44;;;;;;;10.07;5.70;;;-1.00;99.90;;;;;;5095052;28;20729;-58
2021/01/17 07:08:37;;;;;;;11.40;5.10;;;-1.00;99.90;;;;;;5091901;28;20511;-58
2021/01/17 07:11:18;;;;;;;11.30;4.70;;;-1.00;99.90;;;;;;5071815;28;20703;-58
2021/01/17 07:13:49;;;;;;;9.75;4.60;;;-0.90;99.90;;;;;;5072562;28;20473;-58
2021/01/17 07:16:31;;;;;;;11.13;5.00;;;-0.90;99.90;;;;;;5072567;28;20916;-58
2021/01/17 07:19:03;;;;;;;12.52;5.78;;;-1.00;99.90;;;;;;5085501;28;21056;-58
2021/01/17 07:21:35;;;;;;;12.77;5.95;;;-0.90;99.90;;;;;;5090785;28;20440;-58
2021/01/17 07:24:04;;;;;;;12.40;5.03;;;-0.90;99.90;;;;;;5046756;28;20898;-58
2021/01/17 07:26:40;;;;;;;10.73;4.93;;;-0.90;99.90;;;;;;5055165;28;20841;-58
2021/01/17 07:29:08;;;;;;;10.20;5.55;;;-0.90;99.90;;;;;;5055294;28;20439;-58
2021/01/17 07:31:37;;;;;;;11.73;5.50;;;-0.80;99.90;;;;;;5055027;28;20523;-57
2021/01/17 07:34:11;;;;;;;13.75;5.78;;;-0.60;99.90;;;;;;5054855;28;20452;-58
2021/01/17 07:36:47;;;;;;;10.45;5.93;;;-0.50;99.90;;;;;;5054326;28;20544;-58
2021/01/17 07:39:20;;;;;;;10.20;4.82;;;-0.30;99.90;;;;;;5054828;28;20899;-58
2021/01/17 07:41:49;;;;;;;12.32;5.70;;;-0.30;99.90;;;;;;5054144;28;20444;-57
2021/01/17 07:44:20;;;;;;;11.98;5.13;;;-0.20;99.90;;;;;;5054416;28;20425;-58
2021/01/17 07:46:47;;;;;;;8.97;4.83;;;-0.20;99.90;;;;;;5053705;28;20429;-58
2021/01/17 07:49:16;;;;;;;11.10;4.88;;;-0.30;99.90;;;;;;5054469;28;20849;-58
2021/01/17 07:51:43;;;;;;;11.98;5.10;;;-0.10;99.90;;;;;;5053964;28;20804;-61
2021/01/17 07:54:17;;;;;;;12.98;5.72;;;0.00;99.90;;;;;;5054471;28;20425;-57
2021/01/17 07:56:46;;;;;;;12.15;4.97;;;0.10;99.90;;;;;;5052253;28;20441;-58
2021/01/17 07:59:12;;;;;;;9.68;5.20;;;0.00;99.90;;;;;;5053553;28;20428;-58
2021/01/17 08:01:49;;;;;;;10.45;6.10;;;-0.20;99.90;;;;;;5053664;28;20429;-58
2021/01/17 08:04:26;;;;;;;10.88;6.28;;;-0.30;99.90;;;;;;5050731;28;20443;-57
2021/01/17 08:06:55;;;;;;;13.07;6.22;;;-0.40;99.90;;;;;;5045914;28;20425;-58
2021/01/17 08:09:46;;;;;;;15.35;6.80;;;-0.40;99.90;;;;;;5052937;28;20434;-58
2021/01/17 08:12:32;;;;;;;12.48;5.47;;;-0.20;99.90;;;;;;5052372;28;20441;-57
2021/01/17 08:15:18;;;;;;;13.77;6.13;;;-0.10;99.90;;;;;;5049449;28;20440;-58
2021/01/17 08:17:46;;;;;;;14.55;6.75;;;-0.10;99.90;;;;;;5050769;28;20425;-57
2021/01/17 08:20:21;;;;;;;12.20;5.70;;;0.00;99.90;;;;;;5049872;28;20437;-58
2021/01/17 08:22:48;;;;;;;10.30;4.65;;;0.00;99.90;;;;;;5054921;28;20514;-59
2021/01/17 08:25:48;;;;;;;11.23;5.65;;;0.10;99.90;;;;;;5072423;28;20504;-57
2021/01/17 08:28:36;;;;;;;13.70;11.07;;;0.10;99.90;;;;;;5045726;28;20468;-58
2021/01/17 08:31:18;;;;;;;10.80;6.45;;;0.10;99.90;;;;;;5052668;28;20837;-58
2021/01/17 08:33:45;;;;;;;11.38;5.78;;;0.10;99.90;;;;;;5053220;28;20690;-58
2021/01/17 08:36:27;;;;;;;11.50;5.72;;;0.10;99.90;;;;;;5053303;28;20429;-57
2021/01/17 08:38:53;;;;;;;12.60;5.50;;;0.10;99.90;;;;;;5053658;28;20428;-57
2021/01/17 08:41:27;;;;;;;11.80;6.53;;;0.20;99.90;;;;;;5051279;28;20847;-57
2021/01/17 08:43:55;;;;;;;11.43;5.90;;;0.10;99.90;;;;;;5052204;28;20816;-58
2021/01/17 08:46:34;;;;;;;14.43;7.07;;;0.00;99.90;;;;;;5052109;28;20433;-58
2021/01/17 08:49:03;;;;;;;11.82;6.80;;;0.00;99.90;;;;;;5053142;28;20433;-57
2021/01/17 08:51:29;;;;;;;11.70;6.10;;;0.00;99.90;;;;;;5052098;28;20428;-56
2021/01/17 08:53:56;;;;;;;11.00;5.53;;;0.10;99.90;;;;;;5053816;28;20421;-56
2021/01/17 08:56:24;;;;;;;12.88;6.47;;;0.00;99.90;;;;;;5052592;28;20540;-58
2021/01/17 08:58:54;;;;;;;11.38;6.10;;;0.00;99.90;;;;;;5053966;28;20776;-56
2021/01/17 09:01:22;;;;;;;13.52;6.93;;;0.00;99.90;;;;;;5053172;28;20499;-58
2021/01/17 09:04:02;;;;;;;17.07;7.37;;;0.00;99.90;;;;;;5053688;28;20519;-58
2021/01/17 09:06:41;;;;;;;12.88;6.90;;;0.00;99.90;;;;;;5053365;28;20441;-58
2021/01/17 09:09:11;;;;;;;13.15;6.80;;;0.20;99.90;;;;;;5052066;28;20429;-59
2021/01/17 09:11:40;;;;;;;11.25;5.95;;;0.30;99.90;;;;;;5053054;28;20425;-58
2021/01/17 09:14:30;;;;;;;9.27;5.93;;;0.20;99.90;;;;;;5052487;28;20787;-57
2021/01/17 09:16:59;;;;;;;11.23;6.60;;;0.20;99.90;;;;;;5051876;28;20429;-57
2021/01/17 09:19:30;;;;;;;10.95;6.80;;;0.30;99.90;;;;;;5051975;28;20421;-53
2021/01/17 09:22:00;;;;;;;11.57;5.72;;;0.40;99.90;;;;;;5051250;28;20522;-55
2021/01/17 09:24:28;;;;;;;12.98;6.63;;;0.30;99.90;;;;;;5050369;28;20904;-55
2021/01/17 09:26:55;;;;;;;14.32;6.80;;;0.30;99.90;;;;;;5052099;28;20431;-56
2021/01/17 09:29:31;;;;;;;11.45;6.28;;;0.40;99.90;;;;;;5051006;28;20429;-57
2021/01/17 09:32:02;;;;;;;12.80;7.10;;;0.40;99.90;;;;;;5070057;28;20513;-55
2021/01/17 09:34:32;;;;;;;14.20;7.82;;;0.50;99.90;;;;;;5075475;28;20451;-57
2021/01/17 09:37:01;;;;;;;13.43;6.20;;;0.50;99.90;;;;;;5071093;28;20480;-55
2021/01/17 09:39:39;;;;;;;12.63;6.50;;;0.70;99.90;;;;;;5080530;28;20511;-57
2021/01/17 09:42:07;;;;;;;11.93;5.80;;;0.80;99.90;;;;;;5069646;28;21052;-57
2021/01/17 09:44:34;;;;;;;10.75;5.97;;;0.90;99.90;;;;;;5076429;28;20853;-57
2021/01/17 09:47:02;;;;;;;12.02;6.45;;;0.90;99.90;;;;;;5075585;28;20411;-58
2021/01/17 09:49:30;;;;;;;9.60;5.50;;;1.00;99.90;;;;;;5069236;28;20442;-57
2021/01/17 09:51:57;;;;;;;12.73;5.43;;;1.00;99.90;;;;;;5090650;28;20467;-58
2021/01/17 09:54:25;;;;;;;12.90;6.43;;;1.00;99.90;;;;;;5085324;28;20425;-57
2021/01/17 09:56:51;;;;;;;11.48;5.20;;;1.00;99.90;;;;;;5090051;28;20410;-58
2021/01/17 09:59:22;;;;;;;12.15;5.97;;;0.90;99.90;;;;;;5074103;28;20424;-58
2021/01/17 10:01:51;;;;;;;10.60;5.55;;;0.90;99.90;;;;;;5089019;28;20429;-57
2021/01/17 10:04:26;;;;;;;11.00;6.03;;;0.80;99.90;;;;;;5092300;28;20740;-57
2021/01/17 10:06:53;;;;;;;11.15;5.80;;;0.80;99.90;;;;;;5088182;28;20508;-57
2021/01/17 10:09:20;;;;;;;11.30;5.30;;;0.70;99.90;;;;;;5075602;28;20430;-58
2021/01/17 10:11:53;;;;;;;13.27;6.13;;;0.80;99.90;;;;;;5072097;28;20470;-57
2021/01/17 10:14:22;;;;;;;9.98;5.15;;;0.90;99.90;;;;;;5074069;28;20435;-58
2021/01/17 10:16:50;;;;;;;8.70;4.53;;;1.10;99.90;;;;;;5074612;28;20526;-58
2021/01/17 10:19:17;;;;;;;7.47;3.78;;;1.20;99.90;;;;;;5074895;28;20726;-58
2021/01/17 10:21:44;;;;;;;7.72;3.60;;;1.10;99.90;;;;;;5077251;28;20883;-58
2021/01/17 10:24:10;;;;;;;10.07;4.43;;;1.20;99.90;;;;;;5073893;28;20424;-58
2021/01/17 10:26:37;;;;;;;9.18;4.47;;;1.20;99.90;;;;;;5073052;28;20866;-58
2021/01/17 10:29:06;;;;;;;8.77;4.38;;;1.10;99.90;;;;;;5086129;28;20429;-58
2021/01/17 10:31:36;;;;;;;9.38;4.78;;;1.10;99.90;;;;;;5073094;28;20427;-58
2021/01/17 10:34:03;;;;;;;8.20;4.75;;;1.10;99.90;;;;;;5073396;28;20420;-59
2021/01/17 10:36:29;;;;;;;8.82;4.28;;;1.30;99.90;;;;;;5080701;28;20433;-57
2021/01/17 10:38:57;;;;;;;7.97;3.70;;;1.30;99.90;;;;;;5094495;28;20418;-57
2021/01/17 10:41:26;;;;;;;7.90;4.03;;;1.20;99.90;;;;;;5093226;28;20421;-58
2021/01/17 10:44:06;;;;;;;8.70;4.20;;;1.20;99.90;;;;;;5093938;28;20440;-57
2021/01/17 10:46:36;;;;;;;8.00;4.25;;;1.20;99.90;;;;;;5077090;28;20459;-58
2021/01/17 10:49:07;;;;;;;9.35;4.60;;;1.30;99.90;;;;;;5092102;28;20875;-57
2021/01/17 10:51:38;;;;;;;8.80;4.05;;;1.30;99.90;;;;;;5077072;28;20446;-58
2021/01/17 10:54:06;;;;;;;8.50;4.30;;;1.30;99.90;;;;;;5073598;28;20777;-59
2021/01/17 10:56:33;;;;;;;10.73;4.20;;;1.40;99.90;;;;;;5088476;28;20533;-58
2021/01/17 10:59:00;;;;;;;10.77;4.60;;;1.40;99.90;;;;;;5073793;28;20519;-58
2021/01/17 11:01:30;;;;;;;7.20;3.50;;;1.60;99.90;;;;;;5073091;28;20542;-58
2021/01/17 11:03:59;;;;;;;6.20;3.50;;;1.70;99.90;;;;;;5074963;28;20850;-58
2021/01/17 11:06:28;;;;;;;9.60;3.72;;;1.80;99.90;;;;;;5072330;28;20541;-59
2021/01/17 11:08:55;;;;;;;8.77;3.63;;;1.70;99.90;;;;;;5072657;28;20442;-59
2021/01/17 11:11:23;;;;;;;5.82;2.60;;;1.80;99.90;;;;;;5071610;28;20435;-58
2021/01/17 11:13:57;;;;;;;7.50;3.80;;;1.80;99.90;;;;;;5072130;28;20424;-58
2021/01/17 11:16:36;;;;;;;6.28;3.08;;;1.80;99.90;;;;;;5070189;28;20431;-58
2021/01/17 11:19:06;;;;;;;8.63;3.80;;;1.70;99.90;;;;;;5068321;28;20503;-58
2021/01/17 11:21:33;;;;;;;6.80;3.30;;;1.70;99.90;;;;;;5080787;28;20539;-59
2021/01/17 11:24:00;;;;;;;8.40;3.33;;;1.50;99.90;;;;;;5072097;28;20442;-59
2021/01/17 11:26:26;;;;;;;8.20;3.40;;;1.40;99.90;;;;;;5069545;28;20427;-59
2021/01/17 11:28:54;;;;;;;7.53;3.38;;;1.40;99.90;;;;;;5070103;28;20907;-60
2021/01/17 11:31:23;;;;;;;6.75;2.85;;;1.30;99.90;;;;;;5073732;28;20929;-59
2021/01/17 11:33:52;;;;;;;6.90;3.42;;;1.20;99.90;;;;;;5078480;28;20569;-59
2021/01/17 11:36:21;;;;;;;7.13;3.88;;;1.10;99.90;;;;;;5076554;28;20435;-59
2021/01/17 11:38:50;;;;;;;6.40;3.17;;;1.40;99.90;;;;;;5077035;28;20421;-60
2021/01/17 11:41:19;;;;;;;8.00;3.20;;;1.60;99.90;;;;;;5074184;28;20432;-59
2021/01/17 11:43:46;;;;;;;6.22;2.50;;;1.70;99.90;;;;;;5071961;28;20907;-60
2021/01/17 11:46:14;;;;;;;4.15;2.10;;;1.80;99.90;;;;;;5089499;28;20425;-59
2021/01/17 11:48:42;;;;;;;6.82;2.70;;;1.90;99.90;;;;;;5070810;28;20801;-59
2021/01/17 11:51:09;;;;;;;7.13;2.40;;;1.80;99.90;;;;;;5069818;28;20434;-59
2021/01/17 11:53:37;;;;;;;5.28;2.70;;;1.80;99.90;;;;;;5070892;28;20457;-58
2021/01/17 11:56:05;;;;;;;5.90;3.10;;;1.90;99.90;;;;;;5069400;28;20432;-59
2021/01/17 11:58:40;;;;;;;4.70;2.42;;;1.90;99.90;;;;;;5075600;28;20869;-58
2021/01/17 12:01:07;;;;;;;6.57;2.70;;;1.70;99.90;;;;;;5074926;28;20860;-58
2021/01/17 12:03:38;;;;;;;6.22;2.50;;;1.60;99.90;;;;;;5071133;28;21097;-58
2021/01/17 12:06:10;;;;;;;5.35;2.83;;;1.50;99.90;;;;;;5071491;28;20674;-58
2021/01/17 12:08:55;;;;;;;6.10;2.90;;;1.50;99.90;;;;;;5067400;28;20530;-58
2021/01/17 12:11:42;;;;;;;5.75;2.60;;;1.60;99.90;;;;;;5066054;28;20805;-59
2021/01/17 12:14:15;;;;;;;6.00;2.40;;;1.80;99.90;;;;;;5066098;28;20420;-59
2021/01/17 12:16:43;;;;;;;5.83;2.80;;;1.90;99.90;;;;;;5063620;28;20427;-58
2021/01/17 12:19:14;;;;;;;5.22;2.60;;;1.90;99.90;;;;;;5069192;28;20497;-58
2021/01/17 12:21:41;;;;;;;6.67;3.20;;;2.00;99.90;;;;;;5069808;28;20430;-58
2021/01/17 12:24:11;;;;;;;8.27;4.18;;;2.00;99.90;;;;;;5070705;28;20795;-57
2021/01/17 12:26:38;;;;;;;10.88;4.40;;;1.70;99.90;;;;;;5067514;28;20456;-56
2021/01/17 12:29:05;;;;;;;7.28;3.50;;;1.60;99.90;;;;;;5068197;28;20492;-56
2021/01/17 12:31:31;;;;;;;7.47;4.22;;;1.60;99.90;;;;;;5069793;28;20457;-58
2021/01/17 12:33:59;;;;;;;8.70;3.80;;;1.60;99.90;;;;;;5071559;28;20420;-58
2021/01/17 12:36:29;;;;;;;7.97;3.15;;;1.50;99.90;;;;;;5069488;28;20902;-58
2021/01/17 12:38:57;;;;;;;8.52;4.13;;;1.60;99.90;;;;;;5069894;28;20426;-59
2021/01/17 12:41:29;;;;;;;7.85;3.45;;;1.60;99.90;;;;;;5070082;28;20435;-59
2021/01/17 12:43:56;;;;;;;7.07;3.63;;;1.80;99.90;;;;;;5070579;28;21061;-60
2021/01/17 12:46:24;;;;;;;7.43;4.00;;;2.00;99.90;;;;;;5069739;28;20429;-59
2021/01/17 12:48:52;;;;;;;8.57;3.63;;;1.90;99.90;;;;;;5069377;28;20415;-59
2021/01/17 12:51:19;;;;;;;6.90;3.30;;;1.80;99.90;;;;;;5072614;28;20424;-59
2021/01/17 12:53:46;;;;;;;6.70;3.00;;;1.70;99.90;;;;;;5071950;28;20782;-58
2021/01/17 12:56:14;;;;;;;5.30;2.08;;;1.70;99.90;;;;;;5071399;28;20424;-59
2021/01/17 12:58:41;;;;;;;4.50;2.20;;;1.90;99.90;;;;;;5079045;28;20877;-59
2021/01/17 13:01:08;;;;;;;3.78;1.80;;;2.10;99.90;;;;;;5074161;28;20427;-59